createdAt,value
2019-03-24T00:02:32.535Z,31.27
2019-03-24T00:05:07.360Z,32.05
2019-03-24T00:07:41.968Z,34.38
2019-03-24T00:10:16.570Z,30.35
2019-03-24T00:12:51.270Z,34.65
2019-03-24T00:15:26.755Z,33.48
2019-03-24T00:18:01.503Z,28.60
2019-03-24T00:20:36.020Z,33.45
2019-03-24T00:23:10.643Z,33.55
2019-03-24T00:25:45.332Z,32.48
2019-03-24T00:28:20.031Z,30.70
2019-03-24T00:30:54.844Z,31.48
2019-03-24T00:33:29.441Z,31.87
2019-03-24T00:36:04.154Z,34.58
2019-03-24T00:38:38.578Z,31.68
2019-03-24T00:41:13.217Z,31.07
2019-03-24T00:43:47.600Z,32.10
2019-03-24T00:46:22.098Z,33.08
2019-03-24T00:48:56.850Z,32.93
2019-03-24T00:51:31.297Z,33.85
2019-03-24T00:54:05.950Z,35.15
2019-03-24T00:56:40.566Z,36.88
2019-03-24T00:59:15.217Z,35.33
2019-03-24T01:01:49.607Z,33.67
2019-03-24T01:04:24.045Z,31.85
2019-03-24T01:06:58.757Z,36.33
2019-03-24T01:09:33.366Z,34.27
2019-03-24T01:12:08.128Z,32.53
2019-03-24T01:14:43.255Z,37.23
2019-03-24T01:17:17.842Z,39.20
2019-03-24T01:19:52.404Z,33.98
2019-03-24T01:22:26.862Z,34.13
2019-03-24T01:25:01.109Z,34.88
2019-03-24T01:27:35.656Z,33.70
2019-03-24T01:30:10.835Z,37.05
2019-03-24T01:32:45.141Z,35.40
2019-03-24T01:35:19.604Z,34.45
2019-03-24T01:37:53.921Z,42.48
2019-03-24T01:40:28.414Z,40.28
2019-03-24T01:43:02.803Z,35.38
2019-03-24T01:45:38.936Z,36.15
2019-03-24T01:48:13.593Z,38.88
2019-03-24T01:50:48.173Z,38.53
2019-03-24T01:53:22.798Z,37.63
2019-03-24T01:55:57.414Z,40.35
2019-03-24T01:58:32.152Z,36.38
2019-03-24T02:01:06.893Z,41.35
2019-03-24T02:03:41.375Z,39.53
2019-03-24T02:06:16.019Z,37.28
2019-03-24T02:08:50.630Z,40.83
2019-03-24T02:11:25.195Z,34.78
2019-03-24T02:13:59.879Z,38.15
2019-03-24T02:16:35.171Z,37.60
2019-03-24T02:19:09.744Z,35.60
2019-03-24T02:21:44.427Z,38.50
2019-03-24T02:24:18.762Z,38.28
2019-03-24T02:26:53.503Z,41.75
2019-03-24T02:29:29.009Z,40.00
2019-03-24T02:32:03.773Z,36.30
2019-03-24T02:34:38.186Z,36.42
2019-03-24T02:37:12.729Z,45.83
2019-03-24T02:39:47.501Z,46.28
2019-03-24T02:42:22.256Z,45.55
2019-03-24T02:44:56.805Z,41.55
2019-03-24T02:47:32.280Z,45.23
2019-03-24T02:50:07.128Z,46.88
2019-03-24T02:52:41.506Z,40.90
2019-03-24T02:55:16.179Z,40.58
2019-03-24T02:57:50.758Z,44.42
2019-03-24T03:00:25.389Z,39.80
2019-03-24T03:03:00.073Z,46.28
2019-03-24T03:05:34.473Z,45.00
2019-03-24T03:08:09.141Z,45.88
2019-03-24T03:10:43.592Z,44.55
2019-03-24T03:13:19.310Z,44.08
2019-03-24T03:15:53.822Z,43.35
2019-03-24T03:18:28.080Z,44.63
2019-03-24T03:21:02.547Z,48.63
2019-03-24T03:23:37.137Z,44.42
2019-03-24T03:26:11.635Z,45.17
2019-03-24T03:28:46.319Z,42.75
2019-03-24T03:31:20.716Z,45.80
2019-03-24T03:33:55.201Z,44.48
2019-03-24T03:36:29.853Z,44.53
2019-03-24T03:39:05.423Z,44.90
2019-03-24T03:41:40.035Z,45.88
2019-03-24T03:44:14.474Z,40.55
2019-03-24T03:46:52.994Z,41.63
2019-03-24T03:49:25.530Z,45.28
2019-03-24T03:52:00.230Z,43.95
2019-03-24T03:54:34.899Z,41.98
2019-03-24T03:57:09.599Z,47.25
2019-03-24T03:59:44.197Z,44.65
2019-03-24T04:02:18.779Z,40.67
2019-03-24T04:04:53.504Z,43.98
2019-03-24T04:07:27.928Z,45.30
2019-03-24T04:10:02.352Z,39.18
2019-03-24T04:12:36.744Z,43.92
2019-03-24T04:15:12.471Z,42.58
2019-03-24T04:17:46.981Z,43.08
2019-03-24T04:20:21.556Z,42.88
2019-03-24T04:22:56.223Z,41.77
2019-03-24T04:25:30.827Z,41.25
2019-03-24T04:28:05.625Z,39.42
2019-03-24T04:30:40.053Z,41.10
2019-03-24T04:33:14.491Z,47.08
2019-03-24T04:35:48.944Z,40.80
2019-03-24T04:38:23.326Z,42.43
2019-03-24T04:40:58.135Z,39.20
2019-03-24T04:43:32.565Z,39.80
2019-03-24T04:46:07.693Z,43.10
2019-03-24T04:48:41.999Z,42.88
2019-03-24T04:51:16.681Z,41.33
2019-03-24T04:53:51.416Z,37.48
2019-03-24T04:56:26.206Z,43.10
2019-03-24T04:59:00.837Z,37.60
2019-03-24T05:01:35.265Z,38.78
2019-03-24T05:04:09.863Z,40.05
2019-03-24T05:06:45.057Z,38.58
2019-03-24T05:09:20.557Z,40.60
2019-03-24T05:11:54.874Z,38.08
2019-03-24T05:14:29.494Z,37.35
2019-03-24T05:17:04.056Z,35.08
2019-03-24T05:19:38.865Z,40.58
2019-03-24T05:22:13.682Z,42.13
2019-03-24T05:24:48.074Z,39.67
2019-03-24T05:27:22.602Z,43.60
2019-03-24T05:29:57.319Z,42.08
2019-03-24T05:32:31.603Z,40.45
2019-03-24T05:35:06.492Z,36.42
2019-03-24T05:37:41.245Z,39.65
2019-03-24T05:40:15.674Z,39.65
2019-03-24T05:42:50.295Z,37.30
2019-03-24T05:45:24.977Z,34.45
2019-03-24T05:47:59.601Z,34.58
2019-03-24T05:50:34.183Z,37.88
2019-03-24T05:53:08.849Z,34.48
2019-03-24T05:55:43.543Z,37.08
2019-03-24T05:58:17.930Z,36.45
2019-03-24T06:00:52.412Z,33.60
2019-03-24T06:03:26.770Z,32.75
2019-03-24T06:06:01.142Z,36.42
2019-03-24T06:08:35.894Z,35.17
2019-03-24T06:11:10.981Z,34.58
2019-03-24T06:13:45.469Z,34.92
2019-03-24T06:16:20.077Z,33.38
2019-03-24T06:18:54.906Z,34.20
2019-03-24T06:21:29.548Z,34.27
2019-03-24T06:24:04.239Z,35.43
2019-03-24T06:26:38.807Z,40.17
2019-03-24T06:29:13.420Z,38.30
2019-03-24T06:31:47.857Z,33.80
2019-03-24T06:34:22.279Z,39.73
2019-03-24T06:36:57.872Z,34.85
2019-03-24T06:39:32.559Z,33.98
2019-03-24T06:42:07.166Z,33.33
2019-03-24T06:44:42.083Z,34.75
2019-03-24T06:47:16.404Z,32.33
2019-03-24T06:49:51.223Z,29.37
2019-03-24T06:52:25.729Z,33.02
2019-03-24T06:55:00.452Z,33.45
2019-03-24T06:57:35.114Z,36.10
2019-03-24T07:00:10.322Z,31.00
2019-03-24T07:02:44.914Z,32.03
2019-03-24T07:05:19.670Z,31.25
2019-03-24T07:07:54.563Z,31.48
2019-03-24T07:10:29.435Z,30.55
2019-03-24T07:13:04.107Z,33.05
2019-03-24T07:15:39.028Z,31.10
2019-03-24T07:18:13.608Z,30.90
2019-03-24T07:20:48.240Z,37.17
2019-03-24T07:23:22.613Z,33.23
2019-03-24T07:25:57.095Z,34.08
2019-03-24T07:28:31.563Z,31.40
2019-03-24T07:31:06.366Z,31.35
2019-03-24T07:33:41.326Z,29.80
2019-03-24T07:36:15.865Z,32.05
2019-03-24T07:38:50.492Z,32.88
2019-03-24T07:41:25.131Z,36.35
2019-03-24T07:43:59.840Z,33.53
2019-03-24T07:46:34.349Z,33.78
2019-03-24T07:49:09.149Z,31.65
2019-03-24T07:51:43.736Z,29.77
2019-03-24T07:54:18.429Z,33.92
2019-03-24T07:56:52.929Z,33.20
2019-03-24T07:59:29.059Z,35.25
2019-03-24T08:02:03.566Z,31.73
2019-03-24T08:04:38.313Z,31.23
2019-03-24T08:07:12.711Z,31.30
2019-03-24T08:09:48.148Z,30.82
2019-03-24T08:12:22.578Z,29.77
2019-03-24T08:14:59.874Z,31.85
2019-03-24T08:17:33.949Z,31.68
2019-03-24T08:20:08.869Z,33.28
2019-03-24T08:22:43.701Z,35.78
2019-03-24T08:25:19.255Z,33.23
2019-03-24T08:27:53.857Z,30.92
2019-03-24T08:30:46.371Z,29.00
2019-03-24T08:33:20.971Z,29.07
2019-03-24T08:35:55.713Z,30.27
2019-03-24T08:38:30.279Z,30.05
2019-03-24T08:41:05.121Z,29.30
2019-03-24T08:43:39.576Z,32.53
2019-03-24T08:46:13.960Z,29.50
2019-03-24T08:48:49.393Z,29.30
2019-03-24T08:51:23.859Z,29.02
2019-03-24T08:53:58.211Z,27.10
2019-03-24T08:56:32.701Z,30.12
2019-03-24T08:59:07.184Z,30.77
2019-03-24T09:01:41.872Z,31.57
2019-03-24T09:04:16.407Z,26.15
2019-03-24T09:06:50.990Z,29.70
2019-03-24T09:09:25.374Z,30.30
2019-03-24T09:12:00.062Z,27.60
2019-03-24T09:14:34.418Z,27.80
2019-03-24T09:17:08.973Z,27.05
2019-03-24T09:19:43.450Z,31.95
2019-03-24T09:22:18.396Z,27.93
2019-03-24T09:24:53.244Z,29.55
2019-03-24T09:27:28.206Z,25.50
2019-03-24T09:30:03.377Z,25.82
2019-03-24T09:32:38.620Z,26.73
2019-03-24T09:35:13.457Z,26.15
2019-03-24T09:37:48.318Z,26.93
2019-03-24T09:40:29.581Z,26.20
2019-03-24T09:43:05.503Z,29.10
2019-03-24T09:45:40.085Z,28.40
2019-03-24T09:48:14.879Z,28.85
2019-03-24T09:50:49.634Z,25.35
2019-03-24T09:53:25.234Z,26.95
2019-03-24T09:56:00.281Z,28.05
2019-03-24T09:58:35.616Z,25.45
2019-03-24T10:01:11.391Z,24.50
2019-03-24T10:03:46.355Z,25.80
2019-03-24T10:06:21.327Z,29.27
2019-03-24T10:08:56.241Z,27.50
2019-03-24T10:11:31.034Z,30.75
2019-03-24T10:14:05.898Z,27.22
2019-03-24T10:16:40.869Z,32.67
2019-03-24T10:19:15.722Z,25.15
2019-03-24T10:21:50.217Z,31.77
2019-03-24T10:24:24.526Z,29.02
2019-03-24T10:26:59.063Z,28.27
2019-03-24T10:29:33.754Z,28.42
2019-03-24T10:32:08.492Z,25.77
2019-03-24T10:34:42.956Z,25.72
2019-03-24T10:37:17.773Z,27.10
2019-03-24T10:39:53.476Z,24.32
2019-03-24T10:42:28.112Z,23.32
2019-03-24T10:45:02.686Z,23.90
2019-03-24T10:47:37.354Z,28.55
2019-03-24T10:50:14.453Z,24.43
2019-03-24T10:52:49.554Z,29.30
2019-03-24T10:55:24.290Z,27.15
2019-03-24T10:57:58.956Z,24.12
2019-03-24T11:00:51.618Z,30.82
2019-03-24T11:05:58.779Z,24.20
2019-03-24T11:08:33.549Z,27.67
2019-03-24T11:11:08.248Z,22.45
2019-03-24T11:13:42.793Z,26.52
2019-03-24T11:16:17.371Z,23.02
2019-03-24T11:18:51.891Z,26.77
2019-03-24T11:21:26.665Z,22.45
2019-03-24T11:24:01.161Z,25.17
2019-03-24T11:26:35.707Z,23.57
2019-03-24T11:29:10.170Z,22.98
2019-03-24T11:31:45.085Z,28.17
2019-03-24T11:34:19.646Z,24.10
2019-03-24T11:36:54.403Z,24.50
2019-03-24T11:39:29.864Z,24.50
2019-03-24T11:42:04.432Z,21.57
2019-03-24T11:44:39.046Z,22.70
2019-03-24T11:47:13.671Z,23.18
2019-03-24T11:49:49.207Z,27.40
2019-03-24T11:52:23.895Z,21.73
2019-03-24T11:54:58.600Z,26.17
2019-03-24T11:57:33.392Z,25.10
2019-03-24T12:00:08.923Z,25.62
2019-03-24T12:02:43.492Z,25.48
2019-03-24T12:05:17.946Z,21.80
2019-03-24T12:07:52.505Z,25.00
2019-03-24T12:10:27.012Z,22.98
2019-03-24T12:13:01.327Z,21.80
2019-03-24T12:15:35.776Z,19.87
2019-03-24T12:18:10.389Z,23.27
2019-03-24T12:20:45.175Z,21.23
2019-03-24T12:23:21.020Z,26.12
2019-03-24T12:25:55.849Z,26.42
2019-03-24T12:28:30.459Z,22.62
2019-03-24T12:31:05.326Z,20.23
2019-03-24T12:33:40.071Z,19.77
2019-03-24T12:36:14.596Z,22.13
2019-03-24T12:38:49.267Z,25.32
2019-03-24T12:41:23.691Z,21.97
2019-03-24T12:43:58.153Z,22.07
2019-03-24T12:46:32.669Z,21.37
2019-03-24T12:49:07.431Z,21.73
2019-03-24T12:51:42.008Z,19.40
2019-03-24T12:54:16.871Z,26.07
2019-03-24T12:56:51.654Z,23.77
2019-03-24T12:59:26.287Z,21.07
2019-03-24T13:02:00.788Z,19.17
2019-03-24T13:04:35.430Z,21.52
2019-03-24T13:07:10.011Z,25.02
2019-03-24T13:09:44.619Z,22.42
2019-03-24T13:12:19.031Z,24.55
2019-03-24T13:14:53.868Z,21.45
2019-03-24T13:17:28.386Z,20.70
2019-03-24T13:20:03.041Z,19.95
2019-03-24T13:22:37.358Z,23.05
2019-03-24T13:25:12.151Z,23.30
2019-03-24T13:27:46.571Z,22.80
2019-03-24T13:30:21.207Z,25.50
2019-03-24T13:32:55.895Z,24.63
2019-03-24T13:35:30.283Z,22.05
2019-03-24T13:38:04.716Z,25.82
2019-03-24T13:40:39.446Z,24.35
2019-03-24T13:43:14.000Z,26.02
2019-03-24T13:45:48.626Z,27.70
2019-03-24T13:48:23.014Z,27.05
2019-03-24T13:50:57.400Z,24.77
2019-03-24T13:53:32.063Z,23.45
2019-03-24T13:56:07.478Z,26.62
2019-03-24T13:58:42.030Z,23.20
2019-03-24T14:01:17.243Z,23.50
2019-03-24T14:03:51.857Z,25.02
2019-03-24T14:06:26.539Z,26.00
2019-03-24T14:09:01.211Z,28.52
2019-03-24T14:11:37.332Z,23.77
2019-03-24T14:14:11.895Z,23.57
2019-03-24T14:16:46.796Z,23.40
2019-03-24T14:19:21.450Z,23.38
2019-03-24T14:21:55.966Z,24.77
2019-03-24T14:24:30.584Z,23.22
2019-03-24T14:27:05.131Z,28.98
2019-03-24T14:29:39.734Z,25.08
2019-03-24T14:32:14.209Z,28.30
2019-03-24T14:34:48.852Z,25.48
2019-03-24T14:37:23.784Z,24.52
2019-03-24T14:39:58.264Z,27.15
2019-03-24T14:42:33.116Z,29.27
2019-03-24T14:45:08.369Z,26.57
2019-03-24T14:47:42.952Z,24.95
2019-03-24T14:50:17.848Z,25.08
2019-03-24T14:52:52.717Z,25.70
2019-03-24T14:55:27.436Z,26.00
2019-03-24T14:58:02.080Z,26.75
2019-03-24T15:00:41.385Z,29.52
2019-03-24T15:03:16.882Z,29.00
2019-03-24T15:05:51.686Z,26.30
2019-03-24T15:08:27.491Z,29.77
2019-03-24T15:11:02.322Z,32.63
2019-03-24T15:13:36.786Z,33.23
2019-03-24T15:16:11.624Z,44.33
2019-03-24T15:18:46.201Z,32.40
2019-03-24T15:21:20.786Z,33.83
2019-03-24T15:23:55.253Z,29.32
2019-03-24T15:26:30.016Z,33.38
2019-03-24T15:29:04.373Z,30.20
2019-03-24T15:31:38.786Z,32.15
2019-03-24T15:34:13.299Z,32.00
2019-03-24T15:36:47.629Z,41.18
2019-03-24T15:39:22.052Z,35.78
2019-03-24T15:41:56.575Z,35.03
2019-03-24T15:44:31.891Z,30.43
2019-03-24T15:47:06.440Z,31.25
2019-03-24T15:49:40.856Z,36.65
2019-03-24T15:52:15.349Z,31.20
2019-03-24T15:54:49.771Z,36.93
2019-03-24T15:57:24.319Z,32.55
2019-03-24T15:59:58.905Z,30.88
2019-03-24T16:02:33.487Z,32.03
2019-03-24T16:05:08.305Z,32.30
2019-03-24T16:07:42.766Z,32.28
2019-03-24T16:10:17.516Z,32.35
2019-03-24T16:12:52.250Z,35.55
2019-03-24T16:15:26.897Z,33.88
2019-03-24T16:18:01.731Z,33.92
2019-03-24T16:20:36.375Z,31.97
2019-03-24T16:23:10.898Z,32.20
2019-03-24T16:25:45.493Z,32.15
2019-03-24T16:28:19.986Z,34.60
2019-03-24T16:30:54.573Z,32.30
2019-03-24T16:33:30.117Z,28.35
2019-03-24T16:36:04.834Z,31.37
2019-03-24T16:38:48.540Z,31.73
2019-03-24T16:41:16.567Z,29.77
2019-03-24T16:43:51.167Z,33.75
2019-03-24T16:46:25.601Z,31.12
2019-03-24T16:48:59.969Z,30.70
2019-03-24T16:51:38.723Z,33.42
2019-03-24T16:54:11.069Z,29.90
2019-03-24T16:56:45.606Z,32.33
2019-03-24T16:59:20.019Z,29.18
2019-03-24T17:01:54.548Z,29.55
2019-03-24T17:04:29.076Z,30.77
2019-03-24T17:07:03.561Z,30.92
2019-03-24T17:09:38.042Z,33.13
2019-03-24T17:12:12.796Z,32.20
2019-03-24T17:14:47.585Z,30.80
2019-03-24T17:17:22.239Z,30.20
2019-03-24T17:19:56.703Z,33.28
2019-03-24T17:22:31.166Z,33.08
2019-03-24T17:25:05.844Z,31.37
2019-03-24T17:27:40.455Z,29.40
2019-03-24T17:30:16.315Z,28.32
2019-03-24T17:32:50.634Z,32.13
2019-03-24T17:35:25.334Z,32.42
2019-03-24T17:37:59.655Z,30.37
2019-03-24T17:40:38.863Z,30.08
2019-03-24T17:43:10.495Z,29.25
2019-03-24T17:45:45.029Z,26.37
2019-03-24T17:48:19.530Z,30.20
2019-03-24T17:50:54.176Z,33.58
2019-03-24T17:53:28.826Z,30.90
2019-03-24T17:56:03.584Z,28.95
2019-03-24T17:58:38.180Z,29.40
2019-03-24T18:01:13.615Z,27.95
2019-03-24T18:03:48.670Z,30.80
2019-03-24T18:06:23.091Z,33.18
2019-03-24T18:08:57.940Z,30.23
2019-03-24T18:11:32.262Z,30.70
2019-03-24T18:14:08.184Z,30.77
2019-03-24T18:16:42.757Z,32.42
2019-03-24T18:19:17.189Z,29.67
2019-03-24T18:21:52.730Z,31.45
2019-03-24T18:24:27.463Z,29.00
2019-03-24T18:27:02.004Z,31.73
2019-03-24T18:29:36.458Z,30.48
2019-03-24T18:32:10.921Z,29.95
2019-03-24T18:34:45.855Z,29.32
2019-03-24T18:37:20.464Z,32.40
2019-03-24T18:39:55.395Z,27.65
2019-03-24T18:42:29.806Z,31.33
2019-03-24T18:45:04.489Z,30.48
2019-03-24T18:47:39.452Z,32.15
2019-03-24T18:50:14.252Z,31.50
2019-03-24T18:52:50.189Z,31.93
2019-03-24T18:55:25.020Z,30.48
2019-03-24T18:57:59.795Z,32.13
2019-03-24T19:00:34.367Z,30.88
2019-03-24T19:03:09.067Z,30.77
2019-03-24T19:05:43.521Z,34.13
2019-03-24T19:08:18.158Z,31.55
2019-03-24T19:10:52.724Z,30.68
2019-03-24T19:13:27.395Z,32.13
2019-03-24T19:16:02.034Z,33.28
2019-03-24T19:18:36.641Z,32.25
2019-03-24T19:21:11.260Z,30.65
2019-03-24T19:23:45.997Z,32.05
2019-03-24T19:26:20.654Z,34.35
2019-03-24T19:28:55.446Z,35.40
2019-03-24T19:31:30.256Z,35.13
2019-03-24T19:34:05.098Z,33.28
2019-03-24T19:36:40.021Z,32.42
2019-03-24T19:39:14.844Z,31.80
2019-03-24T19:41:49.248Z,31.68
2019-03-24T19:44:23.969Z,36.93
2019-03-24T19:46:58.310Z,31.52
2019-03-24T19:49:33.113Z,34.23
2019-03-24T19:52:07.802Z,33.10
2019-03-24T19:54:42.487Z,33.15
2019-03-24T19:57:17.123Z,34.80
2019-03-24T19:59:51.796Z,33.48
2019-03-24T20:02:26.253Z,31.68
2019-03-24T20:05:00.643Z,38.80
2019-03-24T20:07:35.370Z,31.95
2019-03-24T20:10:10.134Z,31.33
2019-03-24T20:12:44.927Z,37.13
2019-03-24T20:15:19.624Z,35.80
2019-03-24T20:17:54.377Z,36.77
2019-03-24T20:20:28.941Z,36.75
2019-03-24T20:23:03.269Z,35.05
2019-03-24T20:25:37.836Z,31.48
2019-03-24T20:28:12.385Z,33.67
2019-03-24T20:30:46.651Z,32.63
2019-03-24T20:33:21.973Z,36.50
2019-03-24T20:35:56.441Z,35.17
2019-03-24T20:38:31.983Z,31.05
2019-03-24T20:41:06.682Z,36.48
2019-03-24T20:43:41.095Z,34.13
2019-03-24T20:46:15.561Z,35.28
2019-03-24T20:48:50.093Z,35.28
2019-03-24T20:51:25.051Z,32.48
2019-03-24T20:53:59.813Z,34.60
2019-03-24T20:56:34.219Z,34.48
2019-03-24T20:59:08.831Z,33.05
2019-03-24T21:01:43.401Z,35.20
2019-03-24T21:04:20.178Z,35.08
2019-03-24T21:06:54.474Z,34.75
2019-03-24T21:09:28.927Z,38.45
2019-03-24T21:12:03.618Z,37.90
2019-03-24T21:14:37.978Z,39.63
2019-03-24T21:17:12.802Z,37.08
2019-03-24T21:19:47.297Z,36.75
2019-03-24T21:22:22.495Z,40.08
2019-03-24T21:24:56.895Z,34.75
2019-03-24T21:27:31.672Z,38.50
2019-03-24T21:30:06.314Z,37.30
2019-03-24T21:32:40.744Z,36.38
2019-03-24T21:35:16.405Z,37.83
2019-03-24T21:37:51.293Z,36.80
2019-03-24T21:40:25.664Z,40.70
2019-03-24T21:43:00.573Z,40.50
2019-03-24T21:45:35.370Z,41.63
2019-03-24T21:48:10.114Z,42.15
2019-03-24T21:50:44.585Z,41.58
2019-03-24T21:53:18.978Z,39.78
2019-03-24T21:55:53.384Z,41.63
2019-03-24T21:58:27.835Z,40.03
2019-03-24T22:01:02.204Z,42.48
2019-03-24T22:03:37.102Z,43.50
2019-03-24T22:06:11.656Z,44.88
2019-03-24T22:08:46.511Z,42.30
2019-03-24T22:11:20.996Z,40.80
2019-03-24T22:13:55.483Z,43.70
2019-03-24T22:16:30.168Z,41.13
2019-03-24T22:19:04.876Z,44.70
2019-03-24T22:21:40.273Z,42.70
2019-03-24T22:24:14.890Z,43.13
2019-03-24T22:26:49.299Z,44.88
2019-03-24T22:29:24.137Z,41.28
2019-03-24T22:31:58.651Z,45.85
2019-03-24T22:34:33.346Z,49.67
2019-03-24T22:37:15.763Z,48.83
2019-03-24T22:39:45.209Z,43.52
2019-03-24T22:42:19.659Z,47.90
2019-03-24T22:44:54.658Z,42.35
2019-03-24T22:47:28.970Z,43.15
2019-03-24T22:50:03.560Z,45.60
2019-03-24T22:52:38.051Z,44.77
2019-03-24T22:55:12.957Z,45.55
2019-03-24T22:57:47.340Z,49.77
2019-03-24T23:00:26.751Z,45.98
2019-03-24T23:03:02.443Z,50.35
2019-03-24T23:05:37.216Z,43.55
2019-03-24T23:08:11.925Z,48.30
2019-03-24T23:10:46.545Z,47.05
2019-03-24T23:13:21.967Z,48.95
2019-03-24T23:15:56.555Z,53.17
2019-03-24T23:18:31.275Z,45.25
2019-03-24T23:21:05.851Z,48.28
2019-03-24T23:23:40.416Z,48.23
2019-03-24T23:26:15.050Z,51.00
2019-03-24T23:28:49.506Z,48.40
2019-03-24T23:31:24.178Z,48.20
2019-03-24T23:33:58.741Z,49.25
2019-03-24T23:36:33.161Z,49.95
2019-03-24T23:39:09.175Z,47.50
2019-03-24T23:41:43.956Z,48.80
2019-03-24T23:44:18.521Z,48.58
2019-03-24T23:46:53.088Z,46.88
2019-03-24T23:49:28.335Z,52.55
2019-03-24T23:52:03.060Z,52.30
2019-03-24T23:54:37.424Z,49.20
2019-03-24T23:57:12.011Z,49.85
2019-03-24T23:59:46.520Z,47.58
